sensor_id;sensor_type;location;lat;lon;timestamp;temperature;humidity
2174;DHT22;1093;51.424;11.764;2023-04-08T00:00:34;6.50;1.40
2174;DHT22;1093;51.424;11.764;2023-04-08T00:03:03;6.50;1.40
2174;DHT22;1093;51.424;11.764;2023-04-08T00:05:32;6.50;1.40
2174;DHT22;1093;51.424;11.764;2023-04-08T00:08:02;6.50;1.40
2174;DHT22;1093;51.424;11.764;2023-04-08T00:10:32;6.50;1.40
2174;DHT22;1093;51.424;11.764;2023-04-08T00:12:58;6.50;1.40
2174;DHT22;1093;51.424;11.764;2023-04-08T00:15:27;6.50;1.40
2174;DHT22;1093;51.424;11.764;2023-04-08T00:17:54;6.40;1.40
2174;DHT22;1093;51.424;11.764;2023-04-08T00:20:22;6.50;1.40
2174;DHT22;1093;51.424;11.764;2023-04-08T00:22:50;6.50;1.40
2174;DHT22;1093;51.424;11.764;2023-04-08T00:25:17;6.40;1.40
2174;DHT22;1093;51.424;11.764;2023-04-08T00:27:46;6.40;1.40
2174;DHT22;1093;51.424;11.764;2023-04-08T00:30:13;6.40;1.40
2174;DHT22;1093;51.424;11.764;2023-04-08T00:32:42;6.40;1.40
2174;DHT22;1093;51.424;11.764;2023-04-08T00:35:10;6.40;1.40
2174;DHT22;1093;51.424;11.764;2023-04-08T00:37:40;6.40;1.40
2174;DHT22;1093;51.424;11.764;2023-04-08T00:40:08;6.40;1.40
2174;DHT22;1093;51.424;11.764;2023-04-08T00:42:37;6.40;1.40
2174;DHT22;1093;51.424;11.764;2023-04-08T00:45:06;6.50;1.40
2174;DHT22;1093;51.424;11.764;2023-04-08T00:47:36;6.50;1.40
2174;DHT22;1093;51.424;11.764;2023-04-08T00:50:09;6.50;1.40
2174;DHT22;1093;51.424;11.764;2023-04-08T00:52:36;6.50;1.40
2174;DHT22;1093;51.424;11.764;2023-04-08T00:55:06;6.50;1.40
2174;DHT22;1093;51.424;11.764;2023-04-08T00:57:33;6.50;1.40
2174;DHT22;1093;51.424;11.764;2023-04-08T01:00:01;6.50;1.40
2174;DHT22;1093;51.424;11.764;2023-04-08T01:02:38;6.50;1.40
2174;DHT22;1093;51.424;11.764;2023-04-08T01:05:15;6.50;1.40
2174;DHT22;1093;51.424;11.764;2023-04-08T01:07:47;6.40;1.40
2174;DHT22;1093;51.424;11.764;2023-04-08T01:10:18;6.40;1.40
2174;DHT22;1093;51.424;11.764;2023-04-08T01:12:49;6.40;1.40
2174;DHT22;1093;51.424;11.764;2023-04-08T01:15:17;6.40;1.40
2174;DHT22;1093;51.424;11.764;2023-04-08T01:17:46;6.40;1.40
2174;DHT22;1093;51.424;11.764;2023-04-08T01:20:15;6.40;1.40
2174;DHT22;1093;51.424;11.764;2023-04-08T01:22:54;6.40;1.40
2174;DHT22;1093;51.424;11.764;2023-04-08T01:25:26;6.40;1.40
2174;DHT22;1093;51.424;11.764;2023-04-08T01:27:58;6.30;1.40
2174;DHT22;1093;51.424;11.764;2023-04-08T01:30:27;6.30;1.40
2174;DHT22;1093;51.424;11.764;2023-04-08T01:32:55;6.30;1.40
2174;DHT22;1093;51.424;11.764;2023-04-08T01:35:27;6.30;1.40
2174;DHT22;1093;51.424;11.764;2023-04-08T01:37:57;6.30;1.40
2174;DHT22;1093;51.424;11.764;2023-04-08T01:40:37;6.30;1.40
2174;DHT22;1093;51.424;11.764;2023-04-08T01:43:10;6.30;1.40
2174;DHT22;1093;51.424;11.764;2023-04-08T01:45:37;6.30;1.40
2174;DHT22;1093;51.424;11.764;2023-04-08T01:48:06;6.30;1.40
2174;DHT22;1093;51.424;11.764;2023-04-08T01:50:33;6.30;1.40
2174;DHT22;1093;51.424;11.764;2023-04-08T01:53:01;6.30;1.40
2174;DHT22;1093;51.424;11.764;2023-04-08T01:55:31;6.20;1.40
2174;DHT22;1093;51.424;11.764;2023-04-08T01:57:59;6.30;1.40
2174;DHT22;1093;51.424;11.764;2023-04-08T02:00:29;6.30;1.40
2174;DHT22;1093;51.424;11.764;2023-04-08T02:02:57;6.20;1.40
2174;DHT22;1093;51.424;11.764;2023-04-08T02:05:25;6.20;1.40
2174;DHT22;1093;51.424;11.764;2023-04-08T02:07:53;6.20;1.40
2174;DHT22;1093;51.424;11.764;2023-04-08T02:10:20;6.20;1.40
2174;DHT22;1093;51.424;11.764;2023-04-08T02:12:50;6.20;1.40
2174;DHT22;1093;51.424;11.764;2023-04-08T02:15:18;6.20;1.40
2174;DHT22;1093;51.424;11.764;2023-04-08T02:17:50;6.20;1.40
2174;DHT22;1093;51.424;11.764;2023-04-08T02:20:22;6.20;1.40
2174;DHT22;1093;51.424;11.764;2023-04-08T02:22:58;6.20;1.40
2174;DHT22;1093;51.424;11.764;2023-04-08T02:25:34;6.10;1.40
2174;DHT22;1093;51.424;11.764;2023-04-08T02:28:05;6.10;1.40
2174;DHT22;1093;51.424;11.764;2023-04-08T02:30:37;6.10;1.40
2174;DHT22;1093;51.424;11.764;2023-04-08T02:33:10;6.10;1.40
2174;DHT22;1093;51.424;11.764;2023-04-08T02:35:40;6.20;1.40
2174;DHT22;1093;51.424;11.764;2023-04-08T02:38:08;6.20;1.40
2174;DHT22;1093;51.424;11.764;2023-04-08T02:40:38;6.10;1.40
2174;DHT22;1093;51.424;11.764;2023-04-08T02:43:05;6.10;1.40
2174;DHT22;1093;51.424;11.764;2023-04-08T02:45:37;6.10;1.40
2174;DHT22;1093;51.424;11.764;2023-04-08T02:48:05;6.00;1.40
2174;DHT22;1093;51.424;11.764;2023-04-08T02:50:37;6.00;1.40
2174;DHT22;1093;51.424;11.764;2023-04-08T02:53:04;6.00;1.40
2174;DHT22;1093;51.424;11.764;2023-04-08T02:55:33;6.00;1.40
2174;DHT22;1093;51.424;11.764;2023-04-08T02:58:02;6.10;1.40
2174;DHT22;1093;51.424;11.764;2023-04-08T03:00:29;6.10;1.40
2174;DHT22;1093;51.424;11.764;2023-04-08T03:02:56;6.10;1.40
2174;DHT22;1093;51.424;11.764;2023-04-08T03:05:26;6.10;1.40
2174;DHT22;1093;51.424;11.764;2023-04-08T03:07:55;6.10;1.40
2174;DHT22;1093;51.424;11.764;2023-04-08T03:10:22;6.10;1.40
2174;DHT22;1093;51.424;11.764;2023-04-08T03:12:49;6.10;1.40
2174;DHT22;1093;51.424;11.764;2023-04-08T03:15:17;6.10;1.40
2174;DHT22;1093;51.424;11.764;2023-04-08T03:17:44;6.10;1.40
2174;DHT22;1093;51.424;11.764;2023-04-08T03:20:11;6.10;1.40
2174;DHT22;1093;51.424;11.764;2023-04-08T03:22:38;6.10;1.40
2174;DHT22;1093;51.424;11.764;2023-04-08T03:25:08;6.10;1.40
2174;DHT22;1093;51.424;11.764;2023-04-08T03:27:36;6.20;1.40
2174;DHT22;1093;51.424;11.764;2023-04-08T03:30:03;6.10;1.40
2174;DHT22;1093;51.424;11.764;2023-04-08T03:32:31;6.10;1.40
2174;DHT22;1093;51.424;11.764;2023-04-08T03:35:00;6.20;1.40
2174;DHT22;1093;51.424;11.764;2023-04-08T03:37:27;6.20;1.40
2174;DHT22;1093;51.424;11.764;2023-04-08T03:39:56;6.20;1.40
2174;DHT22;1093;51.424;11.764;2023-04-08T03:42:25;6.20;1.40
2174;DHT22;1093;51.424;11.764;2023-04-08T03:44:52;6.10;1.40
2174;DHT22;1093;51.424;11.764;2023-04-08T03:47:23;6.10;1.40
2174;DHT22;1093;51.424;11.764;2023-04-08T03:49:51;6.10;1.40
2174;DHT22;1093;51.424;11.764;2023-04-08T03:52:19;6.10;1.40
2174;DHT22;1093;51.424;11.764;2023-04-08T03:54:46;6.10;1.40
2174;DHT22;1093;51.424;11.764;2023-04-08T03:57:14;6.10;1.40
2174;DHT22;1093;51.424;11.764;2023-04-08T03:59:43;6.10;1.40
2174;DHT22;1093;51.424;11.764;2023-04-08T04:02:10;6.10;1.40
2174;DHT22;1093;51.424;11.764;2023-04-08T04:04:37;6.10;1.40
2174;DHT22;1093;51.424;11.764;2023-04-08T04:07:05;6.10;1.40
2174;DHT22;1093;51.424;11.764;2023-04-08T04:09:32;6.10;1.40
2174;DHT22;1093;51.424;11.764;2023-04-08T04:12:00;6.10;1.40
2174;DHT22;1093;51.424;11.764;2023-04-08T04:14:28;6.00;1.40
2174;DHT22;1093;51.424;11.764;2023-04-08T04:16:57;6.00;1.40
2174;DHT22;1093;51.424;11.764;2023-04-08T04:19:28;6.00;1.40
2174;DHT22;1093;51.424;11.764;2023-04-08T04:21:55;6.00;1.40
2174;DHT22;1093;51.424;11.764;2023-04-08T04:24:22;6.00;1.40
2174;DHT22;1093;51.424;11.764;2023-04-08T04:26:50;6.00;1.40
2174;DHT22;1093;51.424;11.764;2023-04-08T04:29:18;6.00;1.40
2174;DHT22;1093;51.424;11.764;2023-04-08T04:31:45;6.00;1.40
2174;DHT22;1093;51.424;11.764;2023-04-08T04:34:19;6.00;1.40
2174;DHT22;1093;51.424;11.764;2023-04-08T04:36:46;6.00;1.40
2174;DHT22;1093;51.424;11.764;2023-04-08T04:39:13;5.90;1.40
2174;DHT22;1093;51.424;11.764;2023-04-08T04:41:40;5.90;1.40
2174;DHT22;1093;51.424;11.764;2023-04-08T04:44:08;6.00;1.40
2174;DHT22;1093;51.424;11.764;2023-04-08T04:46:36;5.90;1.40
2174;DHT22;1093;51.424;11.764;2023-04-08T04:49:03;6.00;1.40
2174;DHT22;1093;51.424;11.764;2023-04-08T04:51:33;6.00;1.40
2174;DHT22;1093;51.424;11.764;2023-04-08T04:54:00;6.00;1.40
2174;DHT22;1093;51.424;11.764;2023-04-08T04:56:30;6.00;1.40
2174;DHT22;1093;51.424;11.764;2023-04-08T04:58:57;6.00;1.40
2174;DHT22;1093;51.424;11.764;2023-04-08T05:01:30;6.00;1.40
2174;DHT22;1093;51.424;11.764;2023-04-08T05:04:00;6.00;1.40
2174;DHT22;1093;51.424;11.764;2023-04-08T05:06:36;6.10;1.40
2174;DHT22;1093;51.424;11.764;2023-04-08T05:09:05;6.00;1.40
2174;DHT22;1093;51.424;11.764;2023-04-08T05:11:32;6.00;1.40
2174;DHT22;1093;51.424;11.764;2023-04-08T05:14:00;6.00;1.40
2174;DHT22;1093;51.424;11.764;2023-04-08T05:16:27;6.00;1.40
2174;DHT22;1093;51.424;11.764;2023-04-08T05:19:01;6.00;1.40
2174;DHT22;1093;51.424;11.764;2023-04-08T05:21:31;6.00;1.40
2174;DHT22;1093;51.424;11.764;2023-04-08T05:24:01;6.10;1.40
2174;DHT22;1093;51.424;11.764;2023-04-08T05:26:28;6.00;1.40
2174;DHT22;1093;51.424;11.764;2023-04-08T05:28:56;6.00;1.40
2174;DHT22;1093;51.424;11.764;2023-04-08T05:31:25;6.10;1.40
2174;DHT22;1093;51.424;11.764;2023-04-08T05:33:54;6.10;1.40
2174;DHT22;1093;51.424;11.764;2023-04-08T05:36:21;6.00;1.40
2174;DHT22;1093;51.424;11.764;2023-04-08T05:38:48;6.00;1.40
2174;DHT22;1093;51.424;11.764;2023-04-08T05:44:39;6.00;1.40
2174;DHT22;1093;51.424;11.764;2023-04-08T05:47:08;6.00;1.40
2174;DHT22;1093;51.424;11.764;2023-04-08T05:49:37;6.10;1.40
2174;DHT22;1093;51.424;11.764;2023-04-08T05:52:06;6.10;1.40
2174;DHT22;1093;51.424;11.764;2023-04-08T05:54:33;6.10;1.40
2174;DHT22;1093;51.424;11.764;2023-04-08T05:57:01;6.10;1.40
2174;DHT22;1093;51.424;11.764;2023-04-08T05:59:29;6.10;1.40
2174;DHT22;1093;51.424;11.764;2023-04-08T06:01:58;6.10;1.40
2174;DHT22;1093;51.424;11.764;2023-04-08T06:04:25;6.10;1.40
2174;DHT22;1093;51.424;11.764;2023-04-08T06:06:55;6.10;1.40
2174;DHT22;1093;51.424;11.764;2023-04-08T06:09:24;6.10;1.40
2174;DHT22;1093;51.424;11.764;2023-04-08T06:12:04;6.10;1.40
2174;DHT22;1093;51.424;11.764;2023-04-08T06:14:32;6.10;1.40
2174;DHT22;1093;51.424;11.764;2023-04-08T06:17:03;6.10;1.40
2174;DHT22;1093;51.424;11.764;2023-04-08T06:19:33;6.10;1.40
2174;DHT22;1093;51.424;11.764;2023-04-08T06:22:06;6.10;1.40
2174;DHT22;1093;51.424;11.764;2023-04-08T06:24:42;6.20;1.40
2174;DHT22;1093;51.424;11.764;2023-04-08T06:27:10;6.20;1.40
2174;DHT22;1093;51.424;11.764;2023-04-08T06:29:42;6.10;1.40
2174;DHT22;1093;51.424;11.764;2023-04-08T06:32:15;6.10;1.40
2174;DHT22;1093;51.424;11.764;2023-04-08T06:34:48;6.10;1.40
2174;DHT22;1093;51.424;11.764;2023-04-08T06:37:15;6.20;1.40
2174;DHT22;1093;51.424;11.764;2023-04-08T06:39:42;6.10;1.40
2174;DHT22;1093;51.424;11.764;2023-04-08T06:42:10;6.10;1.40
2174;DHT22;1093;51.424;11.764;2023-04-08T06:44:43;6.20;1.40
2174;DHT22;1093;51.424;11.764;2023-04-08T06:47:10;6.20;1.40
2174;DHT22;1093;51.424;11.764;2023-04-08T06:49:39;6.30;1.40
2174;DHT22;1093;51.424;11.764;2023-04-08T06:52:09;6.30;1.40
2174;DHT22;1093;51.424;11.764;2023-04-08T06:54:39;6.30;1.40
2174;DHT22;1093;51.424;11.764;2023-04-08T07:00:28;6.30;1.40
2174;DHT22;1093;51.424;11.764;2023-04-08T07:02:59;6.30;1.40
2174;DHT22;1093;51.424;11.764;2023-04-08T07:05:48;6.30;1.40
2174;DHT22;1093;51.424;11.764;2023-04-08T07:12:09;6.20;1.40
2174;DHT22;1093;51.424;11.764;2023-04-08T07:14:38;6.30;1.40
2174;DHT22;1093;51.424;11.764;2023-04-08T07:17:18;6.30;1.40
2174;DHT22;1093;51.424;11.764;2023-04-08T07:20:05;6.30;1.40
2174;DHT22;1093;51.424;11.764;2023-04-08T07:22:57;6.40;1.40
2174;DHT22;1093;51.424;11.764;2023-04-08T07:25:23;6.40;1.40
2174;DHT22;1093;51.424;11.764;2023-04-08T07:27:50;6.40;1.40
2174;DHT22;1093;51.424;11.764;2023-04-08T07:30:17;6.40;1.40
2174;DHT22;1093;51.424;11.764;2023-04-08T07:32:44;6.40;1.40
2174;DHT22;1093;51.424;11.764;2023-04-08T07:35:11;6.50;1.40
2174;DHT22;1093;51.424;11.764;2023-04-08T07:37:38;6.50;1.40
2174;DHT22;1093;51.424;11.764;2023-04-08T07:40:07;6.50;1.40
2174;DHT22;1093;51.424;11.764;2023-04-08T07:42:34;6.50;1.40
2174;DHT22;1093;51.424;11.764;2023-04-08T07:45:01;6.60;1.40
2174;DHT22;1093;51.424;11.764;2023-04-08T07:47:28;6.60;1.40
2174;DHT22;1093;51.424;11.764;2023-04-08T07:49:54;6.60;1.40
2174;DHT22;1093;51.424;11.764;2023-04-08T07:52:21;6.60;1.40
2174;DHT22;1093;51.424;11.764;2023-04-08T07:54:51;6.60;1.40
2174;DHT22;1093;51.424;11.764;2023-04-08T07:57:19;6.60;1.40
2174;DHT22;1093;51.424;11.764;2023-04-08T07:59:46;6.70;1.40
2174;DHT22;1093;51.424;11.764;2023-04-08T08:02:12;6.60;1.40
2174;DHT22;1093;51.424;11.764;2023-04-08T08:04:39;6.70;1.40
2174;DHT22;1093;51.424;11.764;2023-04-08T08:07:05;6.70;1.40
2174;DHT22;1093;51.424;11.764;2023-04-08T08:09:32;6.70;1.40
2174;DHT22;1093;51.424;11.764;2023-04-08T08:11:59;6.70;1.40
2174;DHT22;1093;51.424;11.764;2023-04-08T08:14:27;6.80;1.40
2174;DHT22;1093;51.424;11.764;2023-04-08T08:16:54;6.80;1.40
2174;DHT22;1093;51.424;11.764;2023-04-08T08:19:21;6.90;1.40
2174;DHT22;1093;51.424;11.764;2023-04-08T08:21:48;6.90;1.40
2174;DHT22;1093;51.424;11.764;2023-04-08T08:24:17;6.90;1.40
2174;DHT22;1093;51.424;11.764;2023-04-08T08:26:44;6.90;1.40
2174;DHT22;1093;51.424;11.764;2023-04-08T08:29:13;7.00;1.40
2174;DHT22;1093;51.424;11.764;2023-04-08T08:31:41;7.10;1.40
2174;DHT22;1093;51.424;11.764;2023-04-08T08:34:08;7.20;1.40
2174;DHT22;1093;51.424;11.764;2023-04-08T08:36:35;7.20;1.40
2174;DHT22;1093;51.424;11.764;2023-04-08T08:39:01;7.20;1.40
2174;DHT22;1093;51.424;11.764;2023-04-08T08:41:32;7.30;1.40
2174;DHT22;1093;51.424;11.764;2023-04-08T08:44:01;7.40;1.40
2174;DHT22;1093;51.424;11.764;2023-04-08T08:46:28;7.40;1.40
2174;DHT22;1093;51.424;11.764;2023-04-08T08:48:56;7.40;1.40
2174;DHT22;1093;51.424;11.764;2023-04-08T08:51:23;7.40;1.40
2174;DHT22;1093;51.424;11.764;2023-04-08T08:53:50;7.40;1.40
2174;DHT22;1093;51.424;11.764;2023-04-08T08:56:17;7.40;1.40
2174;DHT22;1093;51.424;11.764;2023-04-08T08:58:44;7.40;1.40
2174;DHT22;1093;51.424;11.764;2023-04-08T09:01:31;7.40;1.40
2174;DHT22;1093;51.424;11.764;2023-04-08T09:04:13;7.40;1.40
2174;DHT22;1093;51.424;11.764;2023-04-08T09:06:41;7.50;1.40
2174;DHT22;1093;51.424;11.764;2023-04-08T09:09:08;7.50;1.40
2174;DHT22;1093;51.424;11.764;2023-04-08T09:11:38;7.50;1.40
2174;DHT22;1093;51.424;11.764;2023-04-08T09:14:16;7.60;1.40
2174;DHT22;1093;51.424;11.764;2023-04-08T09:16:43;7.60;1.40
2174;DHT22;1093;51.424;11.764;2023-04-08T09:19:10;7.60;1.40
2174;DHT22;1093;51.424;11.764;2023-04-08T09:21:39;7.60;1.40
2174;DHT22;1093;51.424;11.764;2023-04-08T09:24:06;7.60;1.40
2174;DHT22;1093;51.424;11.764;2023-04-08T09:26:33;7.60;1.40
2174;DHT22;1093;51.424;11.764;2023-04-08T09:29:04;7.60;1.40
2174;DHT22;1093;51.424;11.764;2023-04-08T09:31:31;7.60;1.40
2174;DHT22;1093;51.424;11.764;2023-04-08T09:34:00;7.60;1.40
2174;DHT22;1093;51.424;11.764;2023-04-08T09:36:34;7.60;1.40
2174;DHT22;1093;51.424;11.764;2023-04-08T09:39:02;7.70;1.40
2174;DHT22;1093;51.424;11.764;2023-04-08T09:41:33;7.60;1.40
2174;DHT22;1093;51.424;11.764;2023-04-08T09:44:02;7.60;1.40
2174;DHT22;1093;51.424;11.764;2023-04-08T09:46:32;7.60;1.40
2174;DHT22;1093;51.424;11.764;2023-04-08T09:49:05;7.60;1.40
2174;DHT22;1093;51.424;11.764;2023-04-08T09:51:37;7.70;1.40
2174;DHT22;1093;51.424;11.764;2023-04-08T09:54:12;7.70;1.40
2174;DHT22;1093;51.424;11.764;2023-04-08T09:56:43;7.70;1.40
2174;DHT22;1093;51.424;11.764;2023-04-08T09:59:14;7.80;1.40
2174;DHT22;1093;51.424;11.764;2023-04-08T10:01:45;7.80;1.40
2174;DHT22;1093;51.424;11.764;2023-04-08T10:04:18;7.80;1.40
2174;DHT22;1093;51.424;11.764;2023-04-08T10:06:48;7.90;1.40
2174;DHT22;1093;51.424;11.764;2023-04-08T10:09:20;7.90;1.40
2174;DHT22;1093;51.424;11.764;2023-04-08T10:11:47;8.00;1.40
2174;DHT22;1093;51.424;11.764;2023-04-08T10:14:14;8.00;1.40
2174;DHT22;1093;51.424;11.764;2023-04-08T10:16:41;8.00;1.40
2174;DHT22;1093;51.424;11.764;2023-04-08T10:19:35;8.00;1.40
2174;DHT22;1093;51.424;11.764;2023-04-08T10:22:02;8.10;1.40
2174;DHT22;1093;51.424;11.764;2023-04-08T10:24:31;8.10;1.40
2174;DHT22;1093;51.424;11.764;2023-04-08T10:26:58;8.20;1.40
2174;DHT22;1093;51.424;11.764;2023-04-08T10:29:35;8.30;1.40
2174;DHT22;1093;51.424;11.764;2023-04-08T10:32:02;8.30;1.40
2174;DHT22;1093;51.424;11.764;2023-04-08T10:34:29;8.30;1.40
2174;DHT22;1093;51.424;11.764;2023-04-08T10:36:56;8.40;1.40
2174;DHT22;1093;51.424;11.764;2023-04-08T10:39:26;8.50;1.40
2174;DHT22;1093;51.424;11.764;2023-04-08T10:41:54;8.50;1.40
2174;DHT22;1093;51.424;11.764;2023-04-08T10:44:23;8.60;1.40
2174;DHT22;1093;51.424;11.764;2023-04-08T10:46:51;8.70;1.40
2174;DHT22;1093;51.424;11.764;2023-04-08T10:49:18;8.70;1.40
2174;DHT22;1093;51.424;11.764;2023-04-08T10:51:46;8.80;1.40
2174;DHT22;1093;51.424;11.764;2023-04-08T10:54:14;8.90;1.40
2174;DHT22;1093;51.424;11.764;2023-04-08T10:56:46;8.80;1.40
2174;DHT22;1093;51.424;11.764;2023-04-08T10:59:15;8.90;1.40
2174;DHT22;1093;51.424;11.764;2023-04-08T11:01:43;8.90;1.40
2174;DHT22;1093;51.424;11.764;2023-04-08T11:04:12;8.90;1.40
2174;DHT22;1093;51.424;11.764;2023-04-08T11:06:38;9.00;1.40
2174;DHT22;1093;51.424;11.764;2023-04-08T11:09:07;9.00;1.40
2174;DHT22;1093;51.424;11.764;2023-04-08T11:11:34;9.10;1.40
2174;DHT22;1093;51.424;11.764;2023-04-08T11:14:01;9.10;1.40
2174;DHT22;1093;51.424;11.764;2023-04-08T11:16:29;9.20;1.40
2174;DHT22;1093;51.424;11.764;2023-04-08T11:18:57;9.20;1.40
2174;DHT22;1093;51.424;11.764;2023-04-08T11:21:24;9.20;1.40
2174;DHT22;1093;51.424;11.764;2023-04-08T11:23:54;9.30;1.40
2174;DHT22;1093;51.424;11.764;2023-04-08T11:26:22;9.30;1.40
2174;DHT22;1093;51.424;11.764;2023-04-08T11:28:52;9.40;1.40
2174;DHT22;1093;51.424;11.764;2023-04-08T11:31:19;9.50;1.40
2174;DHT22;1093;51.424;11.764;2023-04-08T11:33:48;9.50;1.40
2174;DHT22;1093;51.424;11.764;2023-04-08T11:36:17;9.50;1.40
2174;DHT22;1093;51.424;11.764;2023-04-08T11:38:44;9.60;1.40
2174;DHT22;1093;51.424;11.764;2023-04-08T11:41:12;9.70;1.40
2174;DHT22;1093;51.424;11.764;2023-04-08T11:43:50;9.80;1.40
2174;DHT22;1093;51.424;11.764;2023-04-08T11:46:17;9.80;1.40
2174;DHT22;1093;51.424;11.764;2023-04-08T11:48:58;9.70;1.40
2174;DHT22;1093;51.424;11.764;2023-04-08T11:51:25;9.80;1.40
2174;DHT22;1093;51.424;11.764;2023-04-08T11:56:44;9.80;1.40
2174;DHT22;1093;51.424;11.764;2023-04-08T11:59:11;9.90;1.40
2174;DHT22;1093;51.424;11.764;2023-04-08T12:01:38;9.90;1.40
2174;DHT22;1093;51.424;11.764;2023-04-08T12:04:06;10.00;1.40
2174;DHT22;1093;51.424;11.764;2023-04-08T12:06:34;10.10;1.40
2174;DHT22;1093;51.424;11.764;2023-04-08T12:09:01;10.10;1.40
2174;DHT22;1093;51.424;11.764;2023-04-08T12:11:28;10.20;1.40
2174;DHT22;1093;51.424;11.764;2023-04-08T12:13:54;10.20;1.40
2174;DHT22;1093;51.424;11.764;2023-04-08T12:16:21;10.20;1.40
2174;DHT22;1093;51.424;11.764;2023-04-08T12:18:48;10.20;1.40
2174;DHT22;1093;51.424;11.764;2023-04-08T12:21:16;10.30;1.40
2174;DHT22;1093;51.424;11.764;2023-04-08T12:23:43;10.30;1.40
2174;DHT22;1093;51.424;11.764;2023-04-08T12:26:11;10.30;1.40
2174;DHT22;1093;51.424;11.764;2023-04-08T12:28:39;10.30;1.40
2174;DHT22;1093;51.424;11.764;2023-04-08T12:31:05;10.30;1.40
2174;DHT22;1093;51.424;11.764;2023-04-08T12:33:32;10.40;1.40
2174;DHT22;1093;51.424;11.764;2023-04-08T12:35:59;10.40;1.40
2174;DHT22;1093;51.424;11.764;2023-04-08T12:38:27;10.50;1.40
2174;DHT22;1093;51.424;11.764;2023-04-08T12:40:54;10.60;1.40
2174;DHT22;1093;51.424;11.764;2023-04-08T12:43:21;10.60;1.40
2174;DHT22;1093;51.424;11.764;2023-04-08T12:45:49;10.60;1.40
2174;DHT22;1093;51.424;11.764;2023-04-08T12:48:16;10.70;1.40
2174;DHT22;1093;51.424;11.764;2023-04-08T12:50:42;10.70;1.40
2174;DHT22;1093;51.424;11.764;2023-04-08T12:53:09;10.70;1.40
2174;DHT22;1093;51.424;11.764;2023-04-08T12:55:38;10.70;1.40
2174;DHT22;1093;51.424;11.764;2023-04-08T12:58:04;10.80;1.40
2174;DHT22;1093;51.424;11.764;2023-04-08T13:00:31;10.80;1.40
2174;DHT22;1093;51.424;11.764;2023-04-08T13:02:58;10.80;1.40
2174;DHT22;1093;51.424;11.764;2023-04-08T13:05:25;10.70;1.40
2174;DHT22;1093;51.424;11.764;2023-04-08T13:07:51;10.80;1.40
2174;DHT22;1093;51.424;11.764;2023-04-08T13:10:18;10.80;1.40
2174;DHT22;1093;51.424;11.764;2023-04-08T13:12:46;10.80;1.40
2174;DHT22;1093;51.424;11.764;2023-04-08T13:15:13;10.70;1.40
2174;DHT22;1093;51.424;11.764;2023-04-08T13:17:40;10.70;1.40
2174;DHT22;1093;51.424;11.764;2023-04-08T13:20:08;10.60;1.40
2174;DHT22;1093;51.424;11.764;2023-04-08T13:22:36;10.60;1.40
2174;DHT22;1093;51.424;11.764;2023-04-08T13:25:03;10.50;1.40
2174;DHT22;1093;51.424;11.764;2023-04-08T13:27:31;10.50;1.40
2174;DHT22;1093;51.424;11.764;2023-04-08T13:29:59;10.50;1.40
2174;DHT22;1093;51.424;11.764;2023-04-08T13:32:25;10.60;1.40
2174;DHT22;1093;51.424;11.764;2023-04-08T13:34:52;10.50;1.40
2174;DHT22;1093;51.424;11.764;2023-04-08T13:37:19;10.50;1.40
2174;DHT22;1093;51.424;11.764;2023-04-08T13:39:48;10.50;1.40
2174;DHT22;1093;51.424;11.764;2023-04-08T13:42:14;10.50;1.40
2174;DHT22;1093;51.424;11.764;2023-04-08T13:44:41;10.50;1.40
2174;DHT22;1093;51.424;11.764;2023-04-08T13:47:09;10.50;1.40
2174;DHT22;1093;51.424;11.764;2023-04-08T13:49:36;10.50;1.40
2174;DHT22;1093;51.424;11.764;2023-04-08T13:52:02;10.60;1.40
2174;DHT22;1093;51.424;11.764;2023-04-08T13:54:29;10.60;1.40
2174;DHT22;1093;51.424;11.764;2023-04-08T13:56:57;10.60;1.40
2174;DHT22;1093;51.424;11.764;2023-04-08T13:59:24;10.60;1.40
2174;DHT22;1093;51.424;11.764;2023-04-08T14:01:51;10.60;1.40
2174;DHT22;1093;51.424;11.764;2023-04-08T14:04:19;10.60;1.40
2174;DHT22;1093;51.424;11.764;2023-04-08T14:06:48;10.60;1.40
2174;DHT22;1093;51.424;11.764;2023-04-08T14:09:15;10.60;1.40
2174;DHT22;1093;51.424;11.764;2023-04-08T14:11:42;10.60;1.40
2174;DHT22;1093;51.424;11.764;2023-04-08T14:14:09;10.60;1.40
2174;DHT22;1093;51.424;11.764;2023-04-08T14:16:36;10.60;1.40
2174;DHT22;1093;51.424;11.764;2023-04-08T14:19:03;10.60;1.40
2174;DHT22;1093;51.424;11.764;2023-04-08T14:21:32;10.60;1.40
2174;DHT22;1093;51.424;11.764;2023-04-08T14:23:58;10.60;1.40
2174;DHT22;1093;51.424;11.764;2023-04-08T14:26:25;10.60;1.40
2174;DHT22;1093;51.424;11.764;2023-04-08T14:28:52;10.50;1.40
2174;DHT22;1093;51.424;11.764;2023-04-08T14:31:18;10.50;1.40
2174;DHT22;1093;51.424;11.764;2023-04-08T14:33:45;10.50;1.40
2174;DHT22;1093;51.424;11.764;2023-04-08T14:36:12;10.50;1.40
2174;DHT22;1093;51.424;11.764;2023-04-08T14:38:40;10.50;1.40
2174;DHT22;1093;51.424;11.764;2023-04-08T14:41:07;10.50;1.40
2174;DHT22;1093;51.424;11.764;2023-04-08T14:43:33;10.50;1.40
2174;DHT22;1093;51.424;11.764;2023-04-08T14:46:00;10.50;1.40
2174;DHT22;1093;51.424;11.764;2023-04-08T14:48:27;10.50;1.40
2174;DHT22;1093;51.424;11.764;2023-04-08T14:50:55;10.60;1.40
2174;DHT22;1093;51.424;11.764;2023-04-08T14:53:21;10.60;1.40
2174;DHT22;1093;51.424;11.764;2023-04-08T14:55:50;10.60;1.40
2174;DHT22;1093;51.424;11.764;2023-04-08T14:58:17;10.60;1.40
2174;DHT22;1093;51.424;11.764;2023-04-08T15:00:44;10.60;1.40
2174;DHT22;1093;51.424;11.764;2023-04-08T15:03:13;10.60;1.40
2174;DHT22;1093;51.424;11.764;2023-04-08T15:05:39;10.70;1.40
2174;DHT22;1093;51.424;11.764;2023-04-08T15:08:07;10.70;1.40
2174;DHT22;1093;51.424;11.764;2023-04-08T15:10:34;10.70;1.40
2174;DHT22;1093;51.424;11.764;2023-04-08T15:13:02;10.60;1.40
2174;DHT22;1093;51.424;11.764;2023-04-08T15:15:29;10.70;1.40
2174;DHT22;1093;51.424;11.764;2023-04-08T15:17:56;10.70;1.40
2174;DHT22;1093;51.424;11.764;2023-04-08T15:20:22;10.70;1.40
2174;DHT22;1093;51.424;11.764;2023-04-08T15:22:49;10.70;1.40
2174;DHT22;1093;51.424;11.764;2023-04-08T15:25:16;10.70;1.40
2174;DHT22;1093;51.424;11.764;2023-04-08T15:27:43;10.70;1.40
2174;DHT22;1093;51.424;11.764;2023-04-08T15:30:11;10.70;1.40
2174;DHT22;1093;51.424;11.764;2023-04-08T15:32:38;10.70;1.40
2174;DHT22;1093;51.424;11.764;2023-04-08T15:35:06;10.80;1.40
2174;DHT22;1093;51.424;11.764;2023-04-08T15:37:33;10.80;1.40
2174;DHT22;1093;51.424;11.764;2023-04-08T15:40:00;10.80;1.40
2174;DHT22;1093;51.424;11.764;2023-04-08T15:42:27;10.80;1.40
2174;DHT22;1093;51.424;11.764;2023-04-08T15:44:53;10.80;1.40
2174;DHT22;1093;51.424;11.764;2023-04-08T15:47:22;10.80;1.40
2174;DHT22;1093;51.424;11.764;2023-04-08T15:49:51;10.80;1.40
2174;DHT22;1093;51.424;11.764;2023-04-08T15:52:17;10.80;1.40
2174;DHT22;1093;51.424;11.764;2023-04-08T15:54:44;10.80;1.40
2174;DHT22;1093;51.424;11.764;2023-04-08T15:57:11;10.80;1.40
2174;DHT22;1093;51.424;11.764;2023-04-08T15:59:38;10.80;1.40
2174;DHT22;1093;51.424;11.764;2023-04-08T16:02:05;10.80;1.40
2174;DHT22;1093;51.424;11.764;2023-04-08T16:04:33;10.80;1.40
2174;DHT22;1093;51.424;11.764;2023-04-08T16:07:00;10.70;1.40
2174;DHT22;1093;51.424;11.764;2023-04-08T16:09:27;10.80;1.40
2174;DHT22;1093;51.424;11.764;2023-04-08T16:11:54;10.80;1.40
2174;DHT22;1093;51.424;11.764;2023-04-08T16:14:21;10.80;1.40
2174;DHT22;1093;51.424;11.764;2023-04-08T16:16:48;10.80;1.40
2174;DHT22;1093;51.424;11.764;2023-04-08T16:19:15;10.80;1.40
2174;DHT22;1093;51.424;11.764;2023-04-08T16:21:43;10.80;1.40
2174;DHT22;1093;51.424;11.764;2023-04-08T16:24:10;10.90;1.40
2174;DHT22;1093;51.424;11.764;2023-04-08T16:26:37;10.90;1.40
2174;DHT22;1093;51.424;11.764;2023-04-08T16:29:05;10.90;1.40
2174;DHT22;1093;51.424;11.764;2023-04-08T16:31:32;10.90;1.40
2174;DHT22;1093;51.424;11.764;2023-04-08T16:33:59;10.90;1.40